Time;durP1;ratioP1;P1;durP2;ratioP2;P2;SDS_P1;SDS_P2;PMS_P1;PMS_P2;Temp;Humidity;BMP_temperature;BMP_pressure;BME280_temperature;BME280_humidity;BME280_pressure;Samples;Min_cycle;Max_cycle;Signal;HPM_P1;HPM_P2
2023/12/06 00:00:37;;;;;;;38.33;28.42;;;;;;;3.49;92.14;100799.88;3601233;39;20295;-64
2023/12/06 00:03:03;;;;;;;41.55;28.80;;;;;;;3.47;92.67;100793.72;3610450;39;20615;-65
2023/12/06 00:05:31;;;;;;;40.10;28.60;;;;;;;3.51;92.69;100798.94;3609882;39;20100;-64
2023/12/06 00:07:56;;;;;;;39.40;27.27;;;;;;;3.34;92.88;100765.84;3609978;39;20128;-64
2023/12/06 00:10:22;;;;;;;41.08;28.20;;;;;;;3.53;92.13;100797.13;3610911;39;20383;-64
2023/12/06 00:12:48;;;;;;;41.20;29.52;;;;;;;3.54;92.33;100809.47;3609016;39;20060;-64
2023/12/06 00:15:15;;;;;;;41.42;29.05;;;;;;;3.56;92.23;100812.97;3611678;39;20055;-64
2023/12/06 00:17:40;;;;;;;41.40;29.60;;;;;;;3.55;92.29;100808.53;3609365;39;20055;-64
2023/12/06 00:20:07;;;;;;;39.85;27.85;;;;;;;3.55;92.43;100814.72;3606438;39;20458;-64
2023/12/06 00:22:33;;;;;;;37.20;27.35;;;;;;;3.59;92.20;100813.72;3608337;39;20055;-64
2023/12/06 00:24:58;;;;;;;40.75;28.45;;;;;;;3.59;92.12;100823.50;3609074;39;20066;-64
2023/12/06 00:27:24;;;;;;;42.00;29.83;;;;;;;3.59;92.31;100821.69;3611242;39;20101;-64
2023/12/06 00:29:49;;;;;;;38.42;27.95;;;;;;;3.59;91.78;100824.34;3607472;39;20055;-64
2023/12/06 00:32:15;;;;;;;38.70;27.60;;;;;;;3.53;91.68;100821.03;3608171;39;20057;-64
2023/12/06 00:34:41;;;;;;;40.22;28.17;;;;;;;3.57;91.90;100823.53;3600042;39;20062;-64
2023/12/06 00:37:06;;;;;;;41.50;28.52;;;;;;;3.56;92.03;100826.25;3606017;39;20087;-64
2023/12/06 00:39:32;;;;;;;40.22;28.90;;;;;;;3.57;92.49;100834.16;3610004;39;20047;-64
2023/12/06 00:41:59;;;;;;;39.60;28.20;;;;;;;3.59;92.50;100834.13;3609311;39;20073;-64
2023/12/06 00:44:24;;;;;;;39.50;28.00;;;;;;;3.59;92.42;100831.47;3610153;39;20350;-64
2023/12/06 00:46:50;;;;;;;41.80;28.77;;;;;;;3.59;92.16;100834.13;3607430;39;20051;-65
2023/12/06 00:49:18;;;;;;;40.47;28.23;;;;;;;3.58;92.43;100837.69;3610353;39;20334;-64
2023/12/06 00:51:43;;;;;;;37.28;27.20;;;;;;;3.59;92.43;100836.78;3609902;39;20051;-64
2023/12/06 00:54:09;;;;;;;38.72;27.55;;;;;;;3.60;92.78;100847.34;3609962;39;20131;-64
2023/12/06 00:56:35;;;;;;;38.70;26.77;;;;;;;3.57;92.54;100835.94;3606280;39;20061;-64
2023/12/06 00:59:01;;;;;;;37.22;26.73;;;;;;;3.60;92.41;100847.34;3601431;39;20066;-64
2023/12/06 01:01:26;;;;;;;35.10;26.20;;;;;;;3.61;92.66;100853.53;3609263;39;20067;-64
2023/12/06 01:03:52;;;;;;;39.25;26.92;;;;;;;3.55;92.87;100851.06;3607841;39;20120;-64
2023/12/06 01:06:17;;;;;;;36.40;25.48;;;;;;;3.61;92.45;100865.03;3610570;39;20094;-64
2023/12/06 01:08:44;;;;;;;37.78;26.75;;;;;;;3.62;92.85;100865.91;3607370;39;20043;-64
2023/12/06 01:11:09;;;;;;;34.58;25.30;;;;;;;3.62;92.48;100871.22;3608053;39;20131;-64
2023/12/06 01:13:35;;;;;;;35.58;25.35;;;;;;;3.61;92.68;100858.84;3607334;39;20063;-64
2023/12/06 01:16:00;;;;;;;34.08;24.77;;;;;;;3.66;92.92;100868.41;3607123;39;20440;-64
2023/12/06 01:18:26;;;;;;;35.25;25.27;;;;;;;3.66;92.75;100875.53;3609743;39;20055;-64
2023/12/06 01:20:51;;;;;;;34.10;24.92;;;;;;;3.67;92.88;100879.91;3606023;39;20438;-65
2023/12/06 01:23:17;;;;;;;33.42;25.00;;;;;;;3.67;92.37;100879.91;3608507;39;20062;-64
2023/12/06 01:25:43;;;;;;;31.45;23.55;;;;;;;3.68;92.42;100881.66;3609093;39;20307;-64
2023/12/06 01:28:08;;;;;;;33.88;24.38;;;;;;;3.66;92.23;100886.16;3609202;39;20055;-64
2023/12/06 01:30:34;;;;;;;35.70;25.30;;;;;;;3.66;92.20;100881.72;3609701;39;20299;-64
2023/12/06 01:33:00;;;;;;;32.60;24.02;;;;;;;3.66;92.55;100889.69;3607552;39;20058;-64
2023/12/06 01:35:26;;;;;;;31.10;23.63;;;;;;;3.66;92.53;100888.81;3608874;39;20299;-64
2023/12/06 01:37:51;;;;;;;31.08;23.38;;;;;;;3.67;92.17;100893.19;3608848;39;20054;-64
2023/12/06 01:40:17;;;;;;;31.02;23.45;;;;;;;3.69;92.55;100902.00;3606364;39;20058;-65
2023/12/06 01:42:46;;;;;;;30.08;23.15;;;;;;;3.68;92.43;100908.25;3608856;39;20043;-65
2023/12/06 01:45:12;;;;;;;31.33;23.52;;;;;;;3.63;92.84;100892.44;3608841;39;20119;-64
2023/12/06 01:47:41;;;;;;;32.53;23.65;;;;;;;3.55;92.24;100890.94;3608029;39;20051;-63
2023/12/06 01:50:09;;;;;;;30.38;22.58;;;;;;;3.67;92.15;100909.16;3610613;39;20334;-65
2023/12/06 01:52:36;;;;;;;30.98;22.13;;;;;;;3.68;92.27;100909.13;3608426;39;20060;-64
2023/12/06 01:55:03;;;;;;;30.52;22.40;;;;;;;3.70;92.02;100917.03;3609187;39;20063;-64
2023/12/06 01:57:30;;;;;;;28.42;21.73;;;;;;;3.70;91.84;100911.72;3610029;39;20055;-64
2023/12/06 01:59:57;;;;;;;29.98;22.73;;;;;;;3.71;92.12;100914.34;3611858;39;20391;-64
2023/12/06 02:02:25;;;;;;;28.35;21.70;;;;;;;3.51;92.37;100878.66;3612098;39;20062;-64
2023/12/06 02:04:51;;;;;;;31.10;22.33;;;;;;;3.73;92.32;100911.63;3608908;39;20057;-65
2023/12/06 02:07:18;;;;;;;29.83;22.70;;;;;;;3.73;91.97;100923.13;3609887;39;20090;-64
2023/12/06 02:09:44;;;;;;;26.55;20.77;;;;;;;3.74;92.40;100926.63;3608084;39;20046;-64
2023/12/06 02:12:10;;;;;;;31.02;21.77;;;;;;;3.75;92.39;100925.75;3609603;39;20061;-64
2023/12/06 02:14:35;;;;;;;29.80;21.42;;;;;;;3.76;92.29;100927.47;3611772;39;20055;-64
2023/12/06 02:17:04;;;;;;;27.00;21.02;;;;;;;3.75;92.40;100933.72;3611585;39;20074;-64
2023/12/06 02:19:31;;;;;;;26.58;21.08;;;;;;;3.66;92.28;100920.72;3609094;39;20043;-64
2023/12/06 02:21:58;;;;;;;26.20;20.40;;;;;;;3.76;92.32;100943.41;3611474;39;20058;-65
2023/12/06 02:24:29;;;;;;;25.48;19.98;;;;;;;3.77;92.39;100936.31;3610374;39;20058;-64
2023/12/06 02:26:55;;;;;;;23.60;19.67;;;;;;;3.76;92.52;100930.13;3610516;39;20366;-64
2023/12/06 02:29:23;;;;;;;26.23;20.27;;;;;;;3.77;92.35;100923.88;3609606;39;20066;-64
2023/12/06 02:31:48;;;;;;;25.90;20.30;;;;;;;3.79;92.42;100927.38;3610608;39;20055;-64
2023/12/06 02:34:23;;;;;;;25.27;20.20;;;;;;;3.79;92.83;100935.34;3608196;39;20058;-64
2023/12/06 02:36:59;;;;;;;23.27;18.92;;;;;;;3.82;92.28;100940.56;3607912;39;20065;-64
2023/12/06 02:39:32;;;;;;;23.88;19.17;;;;;;;3.76;92.59;100915.97;3610016;39;20120;-64
2023/12/06 02:41:57;;;;;;;23.02;19.23;;;;;;;3.85;92.64;100935.16;3610962;39;20047;-64
2023/12/06 02:44:23;;;;;;;22.90;18.35;;;;;;;3.86;92.50;100934.22;3609812;39;20054;-64
2023/12/06 02:46:49;;;;;;;24.70;18.83;;;;;;;3.88;92.63;100926.22;3608010;39;20061;-64
2023/12/06 02:49:14;;;;;;;22.73;18.15;;;;;;;3.90;92.38;100925.25;3609813;39;20094;-64
2023/12/06 02:51:40;;;;;;;24.42;18.23;;;;;;;3.92;92.14;100927.84;3609729;39;20054;-63
2023/12/06 02:54:06;;;;;;;25.90;18.80;;;;;;;3.93;92.12;100930.47;3609969;39;20051;-64
2023/12/06 02:56:31;;;;;;;23.23;18.23;;;;;;;3.95;92.35;100931.25;3609723;39;20051;-65
2023/12/06 02:58:57;;;;;;;22.80;18.45;;;;;;;3.97;92.44;100943.66;3609225;39;20057;-65
2023/12/06 03:01:22;;;;;;;21.67;17.27;;;;;;;3.99;92.14;100945.31;3610203;39;20046;-64
2023/12/06 03:03:48;;;;;;;22.80;17.92;;;;;;;3.99;91.99;100939.16;3607986;39;20280;-64
2023/12/06 03:06:13;;;;;;;24.45;18.55;;;;;;;4.00;91.88;100946.22;3609704;39;20058;-65
2023/12/06 03:08:39;;;;;;;24.52;18.55;;;;;;;3.98;92.28;100935.63;3608800;39;20059;-65
2023/12/06 03:11:05;;;;;;;23.08;17.50;;;;;;;3.97;92.52;100930.38;3610724;39;20072;-65
2023/12/06 03:13:30;;;;;;;22.63;18.05;;;;;;;4.03;92.09;100933.69;3612264;39;20362;-65
2023/12/06 03:15:56;;;;;;;22.48;16.98;;;;;;;3.97;91.99;100914.41;3610869;39;20050;-65
2023/12/06 03:18:22;;;;;;;21.20;17.40;;;;;;;4.07;92.13;100931.78;3611673;39;20058;-64
2023/12/06 03:20:47;;;;;;;23.67;18.02;;;;;;;4.07;92.23;100931.78;3610651;39;20054;-68
2023/12/06 03:23:13;;;;;;;25.98;18.52;;;;;;;4.05;91.90;100939.81;3611021;39;20053;-64
2023/12/06 03:25:38;;;;;;;21.38;17.58;;;;;;;4.08;92.15;100947.69;3611616;39;20090;-65
2023/12/06 03:28:04;;;;;;;22.90;17.70;;;;;;;4.08;92.40;100945.03;3608839;39;20070;-64
2023/12/06 03:30:30;;;;;;;22.23;18.10;;;;;;;4.07;92.31;100948.63;3610291;39;20079;-65
2023/12/06 03:32:55;;;;;;;21.65;16.85;;;;;;;4.08;92.12;100952.16;3610687;39;20053;-64
2023/12/06 03:35:21;;;;;;;22.58;17.58;;;;;;;4.07;92.29;100964.59;3607155;39;20070;-64
2023/12/06 03:37:47;;;;;;;24.90;17.75;;;;;;;4.10;92.42;100963.63;3606886;39;20098;-65
2023/12/06 03:40:12;;;;;;;20.27;16.35;;;;;;;4.11;92.23;100960.03;3612585;39;20063;-64
2023/12/06 03:42:38;;;;;;;21.05;17.30;;;;;;;4.13;92.15;100966.19;3611174;39;20106;-64
2023/12/06 03:45:04;;;;;;;21.63;17.77;;;;;;;4.14;92.21;100959.94;3610062;39;20130;-64
2023/12/06 03:47:30;;;;;;;20.45;16.30;;;;;;;4.16;92.70;100961.63;3611548;39;20043;-64
2023/12/06 03:49:56;;;;;;;21.27;16.65;;;;;;;4.18;92.37;100969.53;3605840;39;20279;-64
2023/12/06 03:52:22;;;;;;;19.30;16.77;;;;;;;4.18;92.24;100966.88;3612312;39;20062;-64
2023/12/06 03:54:48;;;;;;;23.00;17.45;;;;;;;4.21;92.13;100968.56;3610421;39;20054;-64
2023/12/06 03:57:13;;;;;;;19.20;16.42;;;;;;;4.24;91.96;100974.66;3610121;39;20057;-64
2023/12/06 03:59:39;;;;;;;20.05;17.30;;;;;;;4.26;92.05;100971.97;3610885;39;20334;-64
2023/12/06 04:02:04;;;;;;;22.60;17.05;;;;;;;4.27;92.01;100973.69;3611979;39;20070;-64
2023/12/06 04:04:30;;;;;;;22.60;16.92;;;;;;;4.23;92.08;100964.06;3609328;39;20062;-64
2023/12/06 04:06:56;;;;;;;20.70;16.52;;;;;;;4.30;91.83;100976.25;3607802;39;20387;-65
2023/12/06 04:09:21;;;;;;;22.73;17.13;;;;;;;4.29;91.87;100970.06;3610751;39;20058;-64
2023/12/06 04:11:47;;;;;;;21.05;17.17;;;;;;;4.30;92.50;100971.78;3610508;39;20054;-65
2023/12/06 04:14:13;;;;;;;19.98;16.17;;;;;;;4.25;92.05;100962.22;3612190;39;20123;-65
2023/12/06 04:16:38;;;;;;;20.98;16.38;;;;;;;4.33;91.74;100976.16;3607976;39;20059;-64
2023/12/06 04:19:04;;;;;;;23.10;16.75;;;;;;;4.28;91.95;100972.75;3608448;39;20333;-64
2023/12/06 04:21:30;;;;;;;20.48;17.08;;;;;;;4.35;92.02;100980.50;3611017;39;20047;-64
2023/12/06 04:23:55;;;;;;;20.92;17.20;;;;;;;4.37;92.10;100983.97;3606537;39;20047;-64
2023/12/06 04:26:21;;;;;;;18.88;16.08;;;;;;;4.39;92.11;100989.25;3610888;39;20081;-64
2023/12/06 04:28:47;;;;;;;20.73;16.42;;;;;;;4.41;91.95;100995.41;3611601;39;20043;-64
2023/12/06 04:31:13;;;;;;;21.00;17.10;;;;;;;4.43;91.80;100991.75;3612276;39;20165;-64
2023/12/06 04:33:39;;;;;;;19.17;16.45;;;;;;;4.45;92.03;100997.03;3609103;39;20343;-64
2023/12/06 04:36:04;;;;;;;22.50;18.05;;;;;;;4.47;91.94;100996.97;3612926;39;20128;-64
2023/12/06 04:38:30;;;;;;;20.83;17.02;;;;;;;4.33;91.81;100974.34;3608689;39;20050;-64
2023/12/06 04:40:56;;;;;;;21.92;17.33;;;;;;;4.27;91.89;100961.25;3609405;39;20047;-64
2023/12/06 04:43:22;;;;;;;20.77;16.98;;;;;;;4.52;91.96;101003.88;3610789;39;20065;-64
2023/12/06 04:45:48;;;;;;;22.13;17.25;;;;;;;4.54;92.12;101006.50;3611654;39;20047;-64
2023/12/06 04:48:13;;;;;;;22.30;17.63;;;;;;;4.54;92.42;101006.50;3610401;39;20082;-64
2023/12/06 04:50:39;;;;;;;21.15;16.83;;;;;;;4.56;92.43;101004.63;3610323;39;20304;-64
2023/12/06 04:53:05;;;;;;;23.85;17.95;;;;;;;4.57;92.36;101009.06;3607510;39;20095;-64
2023/12/06 04:55:30;;;;;;;22.92;18.42;;;;;;;4.56;92.42;101009.97;3609359;39;20055;-64
2023/12/06 04:57:56;;;;;;;22.27;17.83;;;;;;;4.56;92.40;101004.63;3607899;39;20051;-64
2023/12/06 05:00:22;;;;;;;21.98;17.77;;;;;;;4.54;92.88;101006.50;3607817;39;20047;-64
2023/12/06 05:02:47;;;;;;;25.23;18.13;;;;;;;4.55;93.07;101008.22;3610550;39;20058;-64
2023/12/06 05:05:13;;;;;;;24.50;18.05;;;;;;;4.55;93.49;101018.88;3607675;39;20124;-64
2023/12/06 05:07:39;;;;;;;22.88;18.80;;;;;;;4.55;93.35;101008.22;3605021;39;20094;-64
2023/12/06 05:10:05;;;;;;;26.83;19.00;;;;;;;4.57;93.75;101019.72;3606502;39;20063;-64
2023/12/06 05:12:31;;;;;;;26.17;18.38;;;;;;;4.57;93.40;101022.38;3605268;39;20095;-64
2023/12/06 05:14:56;;;;;;;23.23;19.15;;;;;;;4.58;93.59;101018.78;3604429;39;20062;-64
2023/12/06 05:17:22;;;;;;;24.27;18.65;;;;;;;4.59;93.46;101031.16;3606948;39;20051;-64
2023/12/06 05:19:47;;;;;;;24.15;19.88;;;;;;;4.60;93.96;101030.25;3609229;39;20070;-64
2023/12/06 05:22:13;;;;;;;24.33;18.42;;;;;;;4.60;94.21;101040.91;3605347;39;20075;-64
2023/12/06 05:24:39;;;;;;;23.88;19.95;;;;;;;4.62;93.99;101036.38;3609377;39;20065;-64
2023/12/06 05:27:04;;;;;;;22.50;18.85;;;;;;;4.61;94.19;101040.84;3608205;39;20069;-64
2023/12/06 05:29:31;;;;;;;23.10;19.10;;;;;;;4.63;94.63;101039.00;3606200;39;20047;-64
2023/12/06 05:31:58;;;;;;;25.23;19.48;;;;;;;4.64;94.47;101039.88;3604203;39;20081;-64
2023/12/06 05:34:23;;;;;;;25.42;20.15;;;;;;;4.65;94.68;101037.13;3607014;39;20307;-64
2023/12/06 05:36:49;;;;;;;23.15;19.25;;;;;;;4.67;94.45;101044.22;3608602;39;20055;-64
2023/12/06 05:39:14;;;;;;;26.25;20.60;;;;;;;4.67;94.60;101049.56;3606096;39;20058;-64
2023/12/06 05:41:40;;;;;;;24.88;20.35;;;;;;;4.68;95.25;101049.47;3604029;39;20047;-64
2023/12/06 05:44:06;;;;;;;24.42;19.58;;;;;;;4.70;94.83;101045.00;3603722;39;20071;-64
2023/12/06 05:46:32;;;;;;;27.83;20.60;;;;;;;4.71;94.92;101045.84;3608821;39;20090;-64
2023/12/06 05:48:58;;;;;;;28.55;20.58;;;;;;;4.72;95.34;101052.91;3604247;39;20496;-64
2023/12/06 05:51:24;;;;;;;25.08;20.67;;;;;;;4.73;94.88;101052.88;3607114;39;20048;-64
2023/12/06 05:53:50;;;;;;;27.10;20.38;;;;;;;4.49;94.97;101011.09;3607137;39;20485;-64
2023/12/06 05:56:16;;;;;;;25.67;20.85;;;;;;;4.77;95.63;101051.84;3608993;39;20067;-64
2023/12/06 05:58:42;;;;;;;26.52;21.05;;;;;;;4.78;95.09;101050.91;3607521;39;20043;-64
2023/12/06 06:01:08;;;;;;;28.63;20.42;;;;;;;4.79;95.50;101051.78;3606395;39;20077;-65
2023/12/06 06:03:34;;;;;;;26.60;21.27;;;;;;;4.80;95.47;101054.41;3605350;39;20055;-64
2023/12/06 06:06:08;;;;;;;27.27;20.33;;;;;;;4.81;95.29;101068.56;3606184;39;20315;-64
2023/12/06 06:08:35;;;;;;;26.98;19.90;;;;;;;4.83;95.78;101066.75;3606326;39;20044;-64
2023/12/06 06:11:02;;;;;;;25.45;20.08;;;;;;;4.84;95.44;101068.47;3609920;39;20142;-64
2023/12/06 06:13:29;;;;;;;26.83;20.80;;;;;;;4.85;95.53;101064.88;3610466;39;20057;-65
2023/12/06 06:15:56;;;;;;;25.73;19.48;;;;;;;4.86;95.51;101066.66;3606505;39;20335;-64
2023/12/06 06:18:22;;;;;;;24.50;19.70;;;;;;;4.86;95.56;101069.31;3608946;39;20055;-64
2023/12/06 06:20:48;;;;;;;26.23;19.23;;;;;;;4.87;95.60;101074.56;3607303;39;20403;-64
2023/12/06 06:23:13;;;;;;;24.30;18.95;;;;;;;4.89;95.56;101072.72;3608168;39;20058;-64
2023/12/06 06:25:39;;;;;;;25.00;19.00;;;;;;;4.92;95.71;101078.88;3609982;39;20391;-64
2023/12/06 06:28:05;;;;;;;24.23;18.33;;;;;;;4.89;95.71;101078.06;3609804;39;20057;-64
2023/12/06 06:30:30;;;;;;;23.90;17.58;;;;;;;4.89;95.19;101091.38;3607223;39;20095;-64
2023/12/06 06:32:57;;;;;;;20.83;17.55;;;;;;;4.91;95.41;101093.09;3610016;39;20047;-64
2023/12/06 06:35:23;;;;;;;26.60;17.45;;;;;;;4.91;95.24;101099.28;3608725;39;20042;-64
2023/12/06 06:37:48;;;;;;;22.90;17.15;;;;;;;4.91;95.30;101091.31;3605698;39;20047;-64
2023/12/06 06:40:15;;;;;;;22.60;17.08;;;;;;;4.74;95.07;101073.25;3607799;39;20113;-64
2023/12/06 06:42:41;;;;;;;22.48;16.92;;;;;;;4.93;95.49;101104.59;3609730;39;20112;-64
2023/12/06 06:45:10;;;;;;;20.73;16.23;;;;;;;4.93;94.98;101096.59;3606761;39;20378;-64
2023/12/06 06:47:36;;;;;;;20.70;16.63;;;;;;;4.93;94.78;101112.59;3604824;39;20419;-64
2023/12/06 06:50:04;;;;;;;22.65;16.55;;;;;;;4.92;95.28;101114.38;3605315;39;20058;-64
2023/12/06 06:52:32;;;;;;;21.15;15.88;;;;;;;4.64;95.08;101056.72;3608389;39;20081;-64
2023/12/06 06:54:58;;;;;;;20.60;16.00;;;;;;;4.92;94.85;101108.19;3607861;39;20160;-64
2023/12/06 06:57:24;;;;;;;18.95;15.63;;;;;;;4.93;94.99;101104.59;3606472;39;20055;-64
2023/12/06 06:59:49;;;;;;;20.05;16.38;;;;;;;4.94;95.27;101114.31;3604955;39;20039;-64
2023/12/06 07:02:16;;;;;;;20.38;16.45;;;;;;;4.95;94.82;101119.59;3607531;39;20058;-64
2023/12/06 07:04:43;;;;;;;23.00;16.40;;;;;;;4.96;94.83;101109.81;3607647;39;20051;-64
2023/12/06 07:07:09;;;;;;;20.98;15.75;;;;;;;4.98;94.74;101118.59;3605051;39;21800;-64
2023/12/06 07:09:36;;;;;;;22.52;16.17;;;;;;;4.73;94.71;101073.31;3606598;39;20070;-64
2023/12/06 07:12:03;;;;;;;21.23;16.42;;;;;;;5.03;94.82;101122.00;3604260;39;20078;-64
2023/12/06 07:14:29;;;;;;;22.27;15.85;;;;;;;5.03;94.48;101120.19;3606281;39;20047;-64
2023/12/06 07:16:56;;;;;;;23.35;16.63;;;;;;;5.06;94.27;101119.22;3607262;39;20055;-64
2023/12/06 07:19:23;;;;;;;19.63;16.20;;;;;;;5.08;94.08;101115.59;3604477;39;20055;-64
2023/12/06 07:21:49;;;;;;;22.65;16.85;;;;;;;5.08;94.04;101131.56;3607539;39;20047;-64
2023/12/06 07:24:15;;;;;;;23.33;16.98;;;;;;;5.09;94.26;101132.44;3606698;39;20059;-64
2023/12/06 07:26:42;;;;;;;22.20;16.38;;;;;;;5.09;94.03;101127.13;3606995;39;20295;-64
2023/12/06 07:29:11;;;;;;;21.85;17.42;;;;;;;5.09;94.09;101121.78;3607156;39;20050;-64
2023/12/06 07:31:37;;;;;;;21.40;17.02;;;;;;;5.11;94.56;101133.28;3607367;39;20445;-64
2023/12/06 07:34:02;;;;;;;21.88;17.02;;;;;;;5.10;93.94;101134.19;3604893;39;20077;-64
2023/12/06 07:36:28;;;;;;;22.00;16.75;;;;;;;5.10;94.24;101135.03;3604937;39;20056;-64
2023/12/06 07:38:53;;;;;;;21.95;17.23;;;;;;;5.08;94.05;101141.38;3606449;39;20051;-64
2023/12/06 07:41:19;;;;;;;23.63;17.88;;;;;;;5.04;93.52;101145.94;3606929;39;20055;-64
2023/12/06 07:43:44;;;;;;;22.10;16.83;;;;;;;4.99;93.53;101152.34;3608006;39;20074;-64
2023/12/06 07:46:10;;;;;;;20.83;17.02;;;;;;;4.93;93.28;101153.41;3604920;39;20062;-64
2023/12/06 07:48:36;;;;;;;21.55;16.42;;;;;;;4.85;93.23;101145.69;3605417;39;20145;-64
2023/12/06 07:51:02;;;;;;;21.17;16.83;;;;;;;4.78;93.39;101152.09;3605446;39;20059;-64
2023/12/06 07:53:28;;;;;;;23.05;18.23;;;;;;;4.71;93.47;101153.22;3606437;39;20147;-64
2023/12/06 07:55:58;;;;;;;23.50;18.00;;;;;;;4.65;93.85;101150.75;3608146;39;20074;-64
2023/12/06 07:58:30;;;;;;;24.02;18.02;;;;;;;4.58;93.48;101162.53;3605363;39;20043;-64
2023/12/06 08:00:58;;;;;;;24.42;18.25;;;;;;;4.51;93.36;101161.00;3604433;39;20079;-64
2023/12/06 08:03:26;;;;;;;23.98;18.02;;;;;;;4.46;94.30;101157.59;3607343;39;20058;-64
2023/12/06 08:05:52;;;;;;;22.05;17.65;;;;;;;4.40;94.29;101164.84;3604470;39;20063;-64
2023/12/06 08:08:18;;;;;;;24.98;18.40;;;;;;;4.37;94.38;101170.25;3608498;39;20048;-64
2023/12/06 08:10:44;;;;;;;26.60;18.35;;;;;;;4.34;94.35;101172.16;3608294;39;20059;-64
2023/12/06 08:13:09;;;;;;;24.25;18.88;;;;;;;4.32;95.13;101164.22;3606530;39;20067;-64
2023/12/06 08:15:35;;;;;;;23.05;18.58;;;;;;;4.30;95.01;101166.03;3606418;39;20055;-64
2023/12/06 08:18:01;;;;;;;23.92;18.75;;;;;;;4.28;95.15;101178.56;3605839;39;20395;-64
2023/12/06 08:20:26;;;;;;;25.25;18.60;;;;;;;4.27;95.15;101179.44;3606977;39;20051;-64
2023/12/06 08:22:52;;;;;;;24.55;17.25;;;;;;;4.26;95.60;101182.16;3604018;39;20039;-64
2023/12/06 08:25:18;;;;;;;25.98;18.08;;;;;;;4.25;95.50;101181.31;3606221;39;20115;-65
2023/12/06 08:27:44;;;;;;;26.35;17.67;;;;;;;4.25;95.55;101185.72;3604441;39;20055;-64
2023/12/06 08:30:10;;;;;;;27.10;19.00;;;;;;;4.23;95.41;101184.91;3606598;39;20059;-64
2023/12/06 08:32:35;;;;;;;22.50;18.10;;;;;;;4.24;95.46;101198.16;3604076;39;20062;-64
2023/12/06 08:35:01;;;;;;;28.77;18.60;;;;;;;4.26;95.68;101185.69;3605236;39;20247;-64
2023/12/06 08:37:27;;;;;;;25.95;18.45;;;;;;;4.28;96.01;101188.28;3609002;39;20390;-64
2023/12/06 08:39:53;;;;;;;27.60;19.20;;;;;;;4.29;96.17;101188.25;3608079;39;20124;-64
2023/12/06 08:42:18;;;;;;;23.45;18.35;;;;;;;4.30;96.26;101195.31;3604158;39;20430;-64
2023/12/06 08:44:44;;;;;;;23.05;17.80;;;;;;;4.33;95.97;101200.56;3606699;39;20326;-64
2023/12/06 08:47:12;;;;;;;24.13;18.27;;;;;;;4.35;95.83;101201.38;3605432;39;20111;-64
2023/12/06 08:49:39;;;;;;;22.23;17.45;;;;;;;4.35;96.15;101201.38;3605803;39;20043;-64
2023/12/06 08:52:08;;;;;;;24.30;17.00;;;;;;;4.37;95.81;101207.50;3607000;39;20105;-64
2023/12/06 08:54:39;;;;;;;23.00;16.95;;;;;;;4.43;95.63;101206.47;3608693;39;20059;-64
2023/12/06 08:57:06;;;;;;;24.08;17.00;;;;;;;4.49;95.68;101216.94;3610852;39;20116;-64
2023/12/06 08:59:32;;;;;;;21.60;15.18;;;;;;;4.36;95.37;101192.47;3606256;39;20291;-64
2023/12/06 09:01:58;;;;;;;24.67;16.50;;;;;;;4.38;94.86;101195.09;3609822;39;20061;-64
2023/12/06 09:04:23;;;;;;;22.42;15.32;;;;;;;4.59;95.08;101225.50;3605598;39;20083;-64
2023/12/06 09:06:49;;;;;;;21.13;15.52;;;;;;;4.48;95.07;101201.88;3608262;39;20062;-64
2023/12/06 09:09:18;;;;;;;21.10;15.65;;;;;;;4.68;94.57;101232.34;3606978;39;20135;-64
2023/12/06 09:11:45;;;;;;;22.25;14.55;;;;;;;4.71;94.07;101227.78;3609170;39;20062;-64
2023/12/06 09:14:11;;;;;;;19.80;15.27;;;;;;;4.74;93.74;101235.69;3607600;39;20063;-64
2023/12/06 09:16:37;;;;;;;20.95;15.38;;;;;;;4.78;93.67;101228.47;3609285;39;20062;-65
2023/12/06 09:19:05;;;;;;;23.55;14.57;;;;;;;4.82;93.43;101232.78;3606312;39;20120;-65
2023/12/06 09:21:44;;;;;;;21.23;15.23;;;;;;;4.85;93.47;101236.25;3606409;39;20064;-64
2023/12/06 09:24:11;;;;;;;19.70;14.82;;;;;;;4.84;93.96;101218.50;3606399;39;20059;-64
2023/12/06 09:26:42;;;;;;;20.85;15.40;;;;;;;4.88;93.73;101225.50;3606475;39;20059;-64
2023/12/06 09:29:09;;;;;;;21.67;15.07;;;;;;;4.97;93.05;101226.09;3607150;39;20059;-64
2023/12/06 09:31:37;;;;;;;20.05;14.50;;;;;;;5.09;93.13;101244.34;3608843;39;20078;-64
2023/12/06 09:34:04;;;;;;;18.48;13.93;;;;;;;5.14;92.47;101242.44;3608883;39;20065;-64
2023/12/06 09:36:30;;;;;;;21.00;13.65;;;;;;;5.22;91.66;101244.81;3607396;39;20378;-64
2023/12/06 09:38:58;;;;;;;16.42;13.13;;;;;;;5.32;91.76;101247.13;3606526;39;20059;-64
2023/12/06 09:41:29;;;;;;;19.23;13.32;;;;;;;5.46;91.38;101252.00;3605227;39;20055;-64
2023/12/06 09:43:55;;;;;;;21.45;13.38;;;;;;;5.66;91.14;101256.66;3605555;39;20387;-65
2023/12/06 09:46:22;;;;;;;17.75;12.45;;;;;;;5.85;90.09;101256.03;3606495;39;20421;-64
2023/12/06 09:48:49;;;;;;;17.83;12.07;;;;;;;6.02;89.14;101254.50;3607107;39;20056;-64
2023/12/06 09:51:17;;;;;;;14.52;10.43;;;;;;;6.01;87.00;101241.22;3604682;39;20284;-64
2023/12/06 09:53:43;;;;;;;14.85;10.98;;;;;;;6.22;86.04;101269.81;3605208;39;20404;-64
2023/12/06 09:56:10;;;;;;;15.70;10.32;;;;;;;6.35;85.27;101272.03;3606293;39;20055;-62
2023/12/06 09:58:36;;;;;;;15.32;9.65;;;;;;;6.42;84.43;101273.53;3607659;39;20120;-64
2023/12/06 10:01:03;;;;;;;12.95;9.90;;;;;;;6.47;82.86;101277.78;3608155;39;20063;-63
2023/12/06 10:03:29;;;;;;;13.68;9.98;;;;;;;6.53;83.32;101273.13;3606743;39;20066;-64
2023/12/06 10:06:03;;;;;;;13.77;11.35;;;;;;;6.00;82.37;101191.47;3607792;39;20059;-64
2023/12/06 10:08:33;;;;;;;18.13;10.50;;;;;;;6.63;82.46;101280.75;3604590;39;20136;-63
2023/12/06 10:11:07;;;;;;;14.00;10.63;;;;;;;6.70;81.90;101284.06;3608844;39;20051;-63
2023/12/06 10:13:41;;;;;;;18.17;10.60;;;;;;;6.80;81.87;101280.09;3600954;39;20079;-64
2023/12/06 10:16:21;;;;;;;17.75;10.23;;;;;;;6.91;82.68;101283.22;3607407;39;20050;-64
2023/12/06 10:18:52;;;;;;;13.88;9.90;;;;;;;7.01;81.71;101283.72;3607082;39;20337;-64
2023/12/06 10:21:20;;;;;;;15.32;9.23;;;;;;;7.01;81.39;101273.03;3606758;39;20055;-64
2023/12/06 10:23:58;;;;;;;16.83;10.23;;;;;;;7.09;80.94;101286.94;3606550;39;20369;-64
2023/12/06 10:26:31;;;;;;;13.50;9.85;;;;;;;7.13;80.50;101277.88;3599839;39;20058;-64
2023/12/06 10:28:58;;;;;;;14.55;10.18;;;;;;;7.21;80.58;101278.44;3609458;39;20046;-64
2023/12/06 10:31:23;;;;;;;16.83;10.65;;;;;;;7.31;80.78;101280.75;3604909;39;20087;-63
2023/12/06 10:33:57;;;;;;;14.65;10.00;;;;;;;7.36;79.44;101284.13;3604723;39;20125;-64
2023/12/06 10:36:25;;;;;;;;;;;;;;;7.32;78.53;101285.16;3610635;39;20082;-63
2023/12/06 10:38:52;;;;;;;14.20;9.10;;;;;;;7.30;77.34;101281.69;3611374;39;19931;-64
2023/12/06 10:41:21;;;;;;;12.45;8.63;;;;;;;7.30;77.92;101279.88;3609079;39;20035;-63
2023/12/06 10:43:49;;;;;;;14.40;9.40;;;;;;;7.26;77.84;101269.34;3608107;39;20071;-63
2023/12/06 10:46:17;;;;;;;13.88;9.25;;;;;;;7.27;77.43;101280.00;3605755;39;20472;-63
2023/12/06 10:48:47;;;;;;;12.55;8.38;;;;;;;7.30;77.50;101276.34;3607414;39;20368;-63
2023/12/06 10:51:14;;;;;;;12.15;8.85;;;;;;;7.34;77.66;101269.94;3610262;39;20127;-63
2023/12/06 10:53:43;;;;;;;16.33;9.63;;;;;;;7.35;77.97;101272.53;3606974;39;20383;-63
2023/12/06 10:56:10;;;;;;;18.73;9.45;;;;;;;7.39;77.56;101273.25;3611752;39;20054;-63
2023/12/06 10:58:38;;;;;;;11.85;8.35;;;;;;;7.31;76.74;101260.22;3608270;39;20116;-63
2023/12/06 11:01:05;;;;;;;11.23;8.13;;;;;;;7.19;77.28;101244.69;3606976;39;20054;-63
2023/12/06 11:03:31;;;;;;;11.88;8.13;;;;;;;7.39;77.52;101262.56;3605784;39;20367;-63
2023/12/06 11:06:15;;;;;;;11.20;7.53;;;;;;;7.43;77.09;101277.56;3600373;39;20049;-63
2023/12/06 11:09:25;;;;;;;13.57;8.45;;;;;;;7.46;77.01;101274.78;3598849;39;20152;-63
2023/12/06 11:12:15;;;;;;;12.88;8.15;;;;;;;7.57;76.53;101280.53;3608025;39;20040;-63
2023/12/06 11:14:57;;;;;;;13.82;9.10;;;;;;;7.89;76.81;101273.78;3607548;39;20389;-63
2023/12/06 11:17:46;;;;;;;14.50;7.82;;;;;;;8.42;76.18;101277.75;3606529;39;20051;-63